createdAt,value
2023-02-23T00:04:56.578Z,45
2023-02-23T00:10:31.008Z,315
2023-02-23T00:16:09.151Z,315
2023-02-23T00:21:45.046Z,315
2023-02-23T00:27:23.104Z,315
2023-02-23T00:32:30.072Z,315
2023-02-23T00:38:16.739Z,315
2023-02-23T00:44:00.153Z,315
2023-02-23T00:49:34.501Z,315
2023-02-23T00:54:55.190Z,315
2023-02-23T01:00:18.295Z,315
2023-02-23T01:06:07.736Z,0
2023-02-23T01:11:32.642Z,45
2023-02-23T01:17:18.498Z,315
2023-02-23T01:22:40.566Z,0
2023-02-23T01:28:30.023Z,315
2023-02-23T01:33:45.221Z,315
2023-02-23T01:39:25.661Z,135
2023-02-23T01:44:46.290Z,45
2023-02-23T01:50:21.356Z,45
2023-02-23T01:55:57.183Z,45
2023-02-23T02:01:33.655Z,90
2023-02-23T02:07:01.055Z,45
2023-02-23T02:12:58.045Z,45
2023-02-23T02:18:23.960Z,45
2023-02-23T02:23:43.065Z,90
2023-02-23T02:29:12.380Z,315
2023-02-23T02:35:03.182Z,315
2023-02-23T02:40:36.074Z,315
2023-02-23T02:45:52.079Z,315
2023-02-23T02:51:45.972Z,90
2023-02-23T02:57:16.055Z,315
2023-02-23T03:02:54.696Z,315
2023-02-23T03:08:15.577Z,315
2023-02-23T03:13:50.022Z,315
2023-02-23T03:19:19.433Z,315
2023-02-23T03:24:57.821Z,315
2023-02-23T03:30:25.222Z,315
2023-02-23T03:35:55.060Z,315
2023-02-23T03:41:46.583Z,135
2023-02-23T03:47:01.197Z,135
2023-02-23T03:52:30.570Z,45
2023-02-23T03:58:11.634Z,45
2023-02-23T04:03:44.738Z,90
2023-02-23T04:09:22.251Z,90
2023-02-23T04:14:45.309Z,45
2023-02-23T04:20:26.523Z,45
2023-02-23T04:26:11.585Z,45
2023-02-23T04:31:44.168Z,90
2023-02-23T04:37:09.092Z,90
2023-02-23T04:42:35.314Z,90
2023-02-23T04:48:07.205Z,315
2023-02-23T04:54:05.769Z,315
2023-02-23T04:59:17.501Z,315
2023-02-23T05:05:09.786Z,315
2023-02-23T05:10:47.349Z,315
2023-02-23T05:16:17.695Z,315
2023-02-23T05:21:48.377Z,315
2023-02-23T05:27:20.444Z,315
2023-02-23T05:32:35.842Z,315
2023-02-23T05:38:24.865Z,315
2023-02-23T05:44:02.965Z,315
2023-02-23T05:49:21.187Z,315
2023-02-23T05:55:15.066Z,315
2023-02-23T06:00:20.514Z,315
2023-02-23T06:06:20.272Z,315
2023-02-23T06:11:31.872Z,315
2023-02-23T06:17:01.955Z,315
2023-02-23T06:22:48.773Z,315
2023-02-23T06:28:33.982Z,315
2023-02-23T06:33:53.499Z,315
2023-02-23T06:39:22.723Z,315
2023-02-23T06:44:55.696Z,315
2023-02-23T06:50:23.734Z,315
2023-02-23T06:56:00.735Z,315
2023-02-23T07:01:46.454Z,315
2023-02-23T07:07:19.219Z,315
2023-02-23T07:13:03.642Z,315
2023-02-23T07:18:33.165Z,315
2023-02-23T07:23:55.991Z,315
2023-02-23T07:29:16.590Z,315
2023-02-23T07:35:18.621Z,315
2023-02-23T07:40:46.412Z,67.5
2023-02-23T07:45:56.967Z,45
2023-02-23T07:51:32.685Z,0
2023-02-23T07:57:25.559Z,315
2023-02-23T08:02:44.676Z,315
2023-02-23T08:08:24.657Z,315
2023-02-23T08:14:09.507Z,315
2023-02-23T08:19:27.897Z,315
2023-02-23T08:25:17.004Z,315
2023-02-23T08:30:44.930Z,45
2023-02-23T08:36:08.449Z,315
2023-02-23T08:41:57.315Z,135
2023-02-23T08:47:32.618Z,45
2023-02-23T08:53:00.733Z,90
2023-02-23T08:58:17.956Z,90
2023-02-23T09:04:12.457Z,135
2023-02-23T09:09:33.561Z,45
2023-02-23T09:14:53.949Z,90
2023-02-23T09:20:55.782Z,45
2023-02-23T09:26:31.076Z,45
2023-02-23T09:31:58.300Z,45
2023-02-23T09:37:30.164Z,45
2023-02-23T09:42:55.482Z,45
2023-02-23T09:48:26.718Z,315
2023-02-23T09:54:14.971Z,135
2023-02-23T09:59:54.734Z,90
2023-02-23T10:05:17.629Z,90
2023-02-23T10:10:56.947Z,315
2023-02-23T10:16:33.411Z,45
2023-02-23T10:21:54.187Z,315
2023-02-23T10:27:29.917Z,45
2023-02-23T10:32:59.068Z,45
2023-02-23T10:38:49.876Z,45
2023-02-23T10:44:24.345Z,315
2023-02-23T10:49:51.950Z,315
2023-02-23T10:55:18.000Z,135
2023-02-23T11:01:06.258Z,45
2023-02-23T11:06:45.634Z,45
2023-02-23T12:19:04.416Z,135
2023-02-23T12:24:50.265Z,135
2023-02-23T12:41:38.150Z,135
2023-02-23T15:02:14.287Z,315
2023-02-23T15:24:27.303Z,315
2023-02-23T15:41:39.398Z,315
2023-02-23T17:10:56.297Z,315
2023-02-23T17:16:26.323Z,315
2023-02-23T17:21:48.771Z,315
2023-02-23T17:27:20.614Z,315
2023-02-23T17:33:20.428Z,315
2023-02-23T17:38:39.696Z,315
2023-02-23T17:44:07.601Z,315
2023-02-23T17:55:17.602Z,315
2023-02-23T18:23:12.913Z,315
2023-02-23T18:29:07.129Z,315
2023-02-23T18:34:41.001Z,315
2023-02-23T18:40:11.641Z,90
2023-02-23T18:45:26.396Z,315
2023-02-23T18:51:07.265Z,315
2023-02-23T18:56:58.921Z,315
2023-02-23T19:02:29.067Z,315
2023-02-23T19:08:04.257Z,315
2023-02-23T19:13:24.849Z,315
2023-02-23T19:19:14.546Z,315
2023-02-23T19:24:38.145Z,315
2023-02-23T19:30:16.481Z,270
2023-02-23T19:35:50.043Z,315
2023-02-23T19:47:03.673Z,315
2023-02-23T19:52:21.509Z,315
2023-02-23T19:58:06.796Z,90
2023-02-23T20:03:54.022Z,315
2023-02-23T20:09:01.840Z,135
2023-02-23T20:14:48.091Z,90
2023-02-23T20:20:22.946Z,90
2023-02-23T20:25:41.222Z,45
2023-02-23T20:31:21.685Z,315
2023-02-23T20:37:03.122Z,90
2023-02-23T20:42:31.962Z,45
2023-02-23T20:47:57.042Z,45
2023-02-23T20:53:28.734Z,0
2023-02-23T20:59:30.173Z,45
2023-02-23T21:04:50.377Z,0
2023-02-23T21:10:08.493Z,0
2023-02-23T21:16:09.710Z,0
2023-02-23T21:21:25.167Z,0
2023-02-23T21:26:56.699Z,45
2023-02-23T21:32:49.789Z,45
2023-02-23T21:38:15.877Z,0
2023-02-23T21:43:29.194Z,337.5
2023-02-23T21:49:31.622Z,0
2023-02-23T21:54:48.860Z,135
2023-02-23T22:00:09.730Z,0
2023-02-23T22:05:56.426Z,45
2023-02-23T22:11:25.555Z,45
2023-02-23T22:17:09.043Z,45
2023-02-23T22:22:28.132Z,0
2023-02-23T22:27:58.286Z,0
2023-02-23T22:33:46.169Z,315
2023-02-23T22:39:19.941Z,315
2023-02-23T22:44:48.216Z,135
2023-02-23T22:50:11.324Z,135
2023-02-23T22:55:54.136Z,90
2023-02-23T23:01:19.253Z,90
2023-02-23T23:07:04.527Z,90
2023-02-23T23:12:36.765Z,90
2023-02-23T23:18:10.811Z,45
2023-02-23T23:23:43.919Z,0
2023-02-23T23:29:21.446Z,90
2023-02-23T23:34:56.306Z,0
2023-02-23T23:40:15.553Z,0
2023-02-23T23:46:14.158Z,292.5
2023-02-23T23:51:25.256Z,315
2023-02-23T23:57:10.028Z,315
